sensor_id;sensor_type;location;lat;lon;timestamp;pressure;altitude;pressure_sealevel;temperature;humidity
75609;BME280;64194;51.044;13.780;2022-11-25T00:00:34;100388.31;;;5.14;87.57
75609;BME280;64194;51.044;13.780;2022-11-25T00:04:35;100385.53;;;5.18;87.42
75609;BME280;64194;51.044;13.780;2022-11-25T00:19:32;100379.28;;;5.42;85.75
75609;BME280;64194;51.044;13.780;2022-11-25T00:23:34;100383.34;;;5.51;85.54
75609;BME280;64194;51.044;13.780;2022-11-25T00:27:36;100385.91;;;5.53;84.96
75609;BME280;64194;51.044;13.780;2022-11-25T00:31:38;100388.97;;;5.64;84.59
75609;BME280;64194;51.044;13.780;2022-11-25T00:35:41;100384.53;;;5.66;85.09
75609;BME280;64194;51.044;13.780;2022-11-25T00:39:42;100393.97;;;5.71;84.71
75609;BME280;64194;51.044;13.780;2022-11-25T00:43:44;100389.13;;;5.82;83.94
75609;BME280;64194;51.044;13.780;2022-11-25T00:48:04;100398.25;;;5.96;83.54
75609;BME280;64194;51.044;13.780;2022-11-25T00:52:07;100391.81;;;6.03;82.93
75609;BME280;64194;51.044;13.780;2022-11-25T00:56:09;100399.69;;;6.04;82.94
75609;BME280;64194;51.044;13.780;2022-11-25T01:00:16;100394.47;;;6.03;82.94
75609;BME280;64194;51.044;13.780;2022-11-25T01:04:17;100390.44;;;5.94;83.12
75609;BME280;64194;51.044;13.780;2022-11-25T01:08:22;100392.22;;;5.94;83.67
75609;BME280;64194;51.044;13.780;2022-11-25T01:12:23;100392.53;;;5.84;83.79
75609;BME280;64194;51.044;13.780;2022-11-25T01:16:25;100395.72;;;5.71;84.15
75609;BME280;64194;51.044;13.780;2022-11-25T01:20:27;100389.03;;;5.62;84.70
75609;BME280;64194;51.044;13.780;2022-11-25T01:24:29;100390.56;;;5.46;84.45
75609;BME280;64194;51.044;13.780;2022-11-25T01:28:31;100396.31;;;5.34;84.92
75609;BME280;64194;51.044;13.780;2022-11-25T01:32:33;100393.13;;;5.26;85.73
75609;BME280;64194;51.044;13.780;2022-11-25T01:36:34;100395.94;;;5.21;85.84
75609;BME280;64194;51.044;13.780;2022-11-25T01:40:36;100398.59;;;5.20;86.13
75609;BME280;64194;51.044;13.780;2022-11-25T01:44:40;100405.78;;;5.16;86.06
75609;BME280;64194;51.044;13.780;2022-11-25T01:49:02;100396.31;;;5.11;86.11
75609;BME280;64194;51.044;13.780;2022-11-25T01:53:09;100396.38;;;5.09;86.25
75609;BME280;64194;51.044;13.780;2022-11-25T01:57:20;100384.75;;;5.15;86.51
75609;BME280;64194;51.044;13.780;2022-11-25T02:01:23;100389.94;;;5.18;86.04
75609;BME280;64194;51.044;13.780;2022-11-25T02:05:37;100393.97;;;5.26;85.53
75609;BME280;64194;51.044;13.780;2022-11-25T02:09:41;100399.97;;;5.30;85.10
75609;BME280;64194;51.044;13.780;2022-11-25T02:13:45;100391.06;;;5.34;84.77
75609;BME280;64194;51.044;13.780;2022-11-25T02:17:47;100390.94;;;5.37;84.97
75609;BME280;64194;51.044;13.780;2022-11-25T02:21:55;100393.38;;;5.41;84.42
75609;BME280;64194;51.044;13.780;2022-11-25T02:26:00;100391.38;;;5.48;84.01
75609;BME280;64194;51.044;13.780;2022-11-25T02:30:03;100388.59;;;5.51;83.85
75609;BME280;64194;51.044;13.780;2022-11-25T02:34:05;100388.50;;;5.54;83.51
75609;BME280;64194;51.044;13.780;2022-11-25T02:38:15;100384.94;;;5.55;83.21
75609;BME280;64194;51.044;13.780;2022-11-25T02:42:18;100383.97;;;5.58;83.09
75609;BME280;64194;51.044;13.780;2022-11-25T02:46:24;100386.53;;;5.59;83.08
75609;BME280;64194;51.044;13.780;2022-11-25T02:50:25;100386.53;;;5.59;82.98
75609;BME280;64194;51.044;13.780;2022-11-25T02:54:27;100385.69;;;5.59;82.92
75609;BME280;64194;51.044;13.780;2022-11-25T02:58:29;100386.25;;;5.67;82.72
75609;BME280;64194;51.044;13.780;2022-11-25T03:02:30;100383.28;;;5.74;82.31
75609;BME280;64194;51.044;13.780;2022-11-25T03:06:35;100389.56;;;5.72;82.63
75609;BME280;64194;51.044;13.780;2022-11-25T03:10:37;100393.78;;;5.76;82.35
75609;BME280;64194;51.044;13.780;2022-11-25T03:14:39;100385.91;;;5.74;82.33
75609;BME280;64194;51.044;13.780;2022-11-25T03:18:41;100391.19;;;5.74;82.27
75609;BME280;64194;51.044;13.780;2022-11-25T03:22:43;100398.19;;;5.75;82.34
75609;BME280;64194;51.044;13.780;2022-11-25T03:26:45;100395.34;;;5.80;82.32
75609;BME280;64194;51.044;13.780;2022-11-25T03:30:46;100398.19;;;5.75;82.42
75609;BME280;64194;51.044;13.780;2022-11-25T03:34:48;100401.72;;;5.74;82.47
75609;BME280;64194;51.044;13.780;2022-11-25T03:38:50;100393.28;;;5.66;82.63
75609;BME280;64194;51.044;13.780;2022-11-25T03:42:52;100401.97;;;5.68;82.42
75609;BME280;64194;51.044;13.780;2022-11-25T03:46:53;100400.53;;;5.61;82.87
75609;BME280;64194;51.044;13.780;2022-11-25T03:50:55;100403.94;;;5.63;82.69
75609;BME280;64194;51.044;13.780;2022-11-25T03:54:59;100401.06;;;5.69;82.79
75609;BME280;64194;51.044;13.780;2022-11-25T03:59:04;100413.25;;;5.72;82.54
75609;BME280;64194;51.044;13.780;2022-11-25T04:03:06;100408.72;;;5.75;82.21
75609;BME280;64194;51.044;13.780;2022-11-25T04:07:08;100414.81;;;5.77;82.14
75609;BME280;64194;51.044;13.780;2022-11-25T04:11:10;100410.72;;;5.69;82.58
75609;BME280;64194;51.044;13.780;2022-11-25T04:15:17;100409.19;;;5.63;82.68
75609;BME280;64194;51.044;13.780;2022-11-25T04:19:24;100417.09;;;5.63;82.50
75609;BME280;64194;51.044;13.780;2022-11-25T04:23:26;100414.22;;;5.69;82.25
75609;BME280;64194;51.044;13.780;2022-11-25T04:27:35;100413.56;;;5.64;82.55
75609;BME280;64194;51.044;13.780;2022-11-25T04:31:37;100418.00;;;5.62;82.77
75609;BME280;64194;51.044;13.780;2022-11-25T04:35:39;100429.59;;;5.58;82.73
75609;BME280;64194;51.044;13.780;2022-11-25T04:39:42;100430.41;;;5.60;82.89
75609;BME280;64194;51.044;13.780;2022-11-25T04:43:51;100434.81;;;5.60;82.82
75609;BME280;64194;51.044;13.780;2022-11-25T04:47:52;100434.63;;;5.64;82.62
75609;BME280;64194;51.044;13.780;2022-11-25T04:51:55;100426.88;;;5.61;82.73
75609;BME280;64194;51.044;13.780;2022-11-25T04:55:56;100430.50;;;5.57;82.59
75609;BME280;64194;51.044;13.780;2022-11-25T04:59:58;100427.09;;;5.55;82.76
75609;BME280;64194;51.044;13.780;2022-11-25T05:04:00;100432.56;;;5.51;82.97
75609;BME280;64194;51.044;13.780;2022-11-25T05:08:02;100425.97;;;5.39;83.36
75609;BME280;64194;51.044;13.780;2022-11-25T05:12:05;100426.97;;;5.35;83.41
75609;BME280;64194;51.044;13.780;2022-11-25T05:16:08;100430.88;;;5.25;83.69
75609;BME280;64194;51.044;13.780;2022-11-25T05:20:10;100434.03;;;5.11;84.24
75609;BME280;64194;51.044;13.780;2022-11-25T05:24:11;100432.81;;;4.96;84.74
75609;BME280;64194;51.044;13.780;2022-11-25T05:28:16;100417.38;;;4.87;84.98
75609;BME280;64194;51.044;13.780;2022-11-25T05:32:18;100423.84;;;4.79;85.49
75609;BME280;64194;51.044;13.780;2022-11-25T05:36:19;100429.53;;;4.67;85.63
75609;BME280;64194;51.044;13.780;2022-11-25T05:40:21;100417.47;;;4.59;85.25
75609;BME280;64194;51.044;13.780;2022-11-25T05:44:34;100430.06;;;4.51;85.72
75609;BME280;64194;51.044;13.780;2022-11-25T05:48:37;100424.97;;;4.47;86.09
75609;BME280;64194;51.044;13.780;2022-11-25T05:52:39;100423.41;;;4.41;85.85
75609;BME280;64194;51.044;13.780;2022-11-25T05:56:42;100432.19;;;4.40;85.57
75609;BME280;64194;51.044;13.780;2022-11-25T06:01:10;100434.16;;;4.34;85.39
75609;BME280;64194;51.044;13.780;2022-11-25T06:05:13;100436.34;;;4.21;85.34
75609;BME280;64194;51.044;13.780;2022-11-25T06:09:14;100432.13;;;4.15;85.43
75609;BME280;64194;51.044;13.780;2022-11-25T06:13:16;100437.47;;;4.14;85.58
75609;BME280;64194;51.044;13.780;2022-11-25T06:17:18;100444.56;;;4.10;85.55
75609;BME280;64194;51.044;13.780;2022-11-25T06:21:28;100441.34;;;4.02;85.73
75609;BME280;64194;51.044;13.780;2022-11-25T06:25:30;100451.09;;;3.99;85.86
75609;BME280;64194;51.044;13.780;2022-11-25T06:29:32;100455.56;;;3.97;85.53
75609;BME280;64194;51.044;13.780;2022-11-25T06:33:38;100453.16;;;3.89;85.28
75609;BME280;64194;51.044;13.780;2022-11-25T06:37:42;100466.47;;;3.83;85.63
75609;BME280;64194;51.044;13.780;2022-11-25T06:41:43;100471.72;;;3.83;85.84
75609;BME280;64194;51.044;13.780;2022-11-25T06:45:46;100474.53;;;3.77;85.82
75609;BME280;64194;51.044;13.780;2022-11-25T06:49:47;100477.09;;;3.80;85.55
75609;BME280;64194;51.044;13.780;2022-11-25T06:53:49;100478.75;;;3.83;85.40
75609;BME280;64194;51.044;13.780;2022-11-25T06:57:50;100482.75;;;3.94;85.18
75609;BME280;64194;51.044;13.780;2022-11-25T07:02:10;100486.34;;;4.19;84.17
75609;BME280;64194;51.044;13.780;2022-11-25T07:06:13;100489.94;;;4.43;83.14
75609;BME280;64194;51.044;13.780;2022-11-25T07:10:15;100497.16;;;4.63;81.67
75609;BME280;64194;51.044;13.780;2022-11-25T07:14:17;100496.47;;;4.83;81.08
75609;BME280;64194;51.044;13.780;2022-11-25T07:18:21;100512.19;;;5.09;79.84
75609;BME280;64194;51.044;13.780;2022-11-25T07:22:23;100511.72;;;5.46;78.28
75609;BME280;64194;51.044;13.780;2022-11-25T07:26:27;100505.78;;;5.87;76.36
75609;BME280;64194;51.044;13.780;2022-11-25T07:30:29;100508.53;;;6.50;74.50
75609;BME280;64194;51.044;13.780;2022-11-25T07:34:51;100512.59;;;7.19;70.59
75609;BME280;64194;51.044;13.780;2022-11-25T07:38:53;100519.41;;;7.43;70.25
75609;BME280;64194;51.044;13.780;2022-11-25T07:42:55;100520.00;;;8.25;67.54
75609;BME280;64194;51.044;13.780;2022-11-25T07:46:57;100521.34;;;8.69;65.38
75609;BME280;64194;51.044;13.780;2022-11-25T07:50:58;100520.56;;;8.85;64.73
75609;BME280;64194;51.044;13.780;2022-11-25T07:55:00;100516.84;;;9.39;61.77
75609;BME280;64194;51.044;13.780;2022-11-25T07:59:02;100512.84;;;9.96;60.55
75609;BME280;64194;51.044;13.780;2022-11-25T08:03:04;100515.81;;;10.68;58.01
75609;BME280;64194;51.044;13.780;2022-11-25T08:07:06;100513.47;;;11.22;56.47
75609;BME280;64194;51.044;13.780;2022-11-25T08:11:10;100517.09;;;11.35;56.47
75609;BME280;64194;51.044;13.780;2022-11-25T08:15:12;100516.53;;;11.58;55.20
75609;BME280;64194;51.044;13.780;2022-11-25T08:19:15;100523.75;;;11.85;54.70
75609;BME280;64194;51.044;13.780;2022-11-25T08:23:17;100517.53;;;12.53;52.31
75609;BME280;64194;51.044;13.780;2022-11-25T08:27:19;100516.34;;;11.90;53.35
75609;BME280;64194;51.044;13.780;2022-11-25T08:31:32;100522.81;;;12.00;53.34
75609;BME280;64194;51.044;13.780;2022-11-25T08:35:35;100532.84;;;13.16;50.78
75609;BME280;64194;51.044;13.780;2022-11-25T08:39:39;100522.59;;;13.73;48.25
75609;BME280;64194;51.044;13.780;2022-11-25T08:43:59;100526.78;;;12.87;49.74
75609;BME280;64194;51.044;13.780;2022-11-25T08:48:01;100531.56;;;12.29;51.38
75609;BME280;64194;51.044;13.780;2022-11-25T08:52:03;100533.94;;;12.60;50.95
75609;BME280;64194;51.044;13.780;2022-11-25T08:56:05;100529.22;;;12.24;50.98
75609;BME280;64194;51.044;13.780;2022-11-25T09:00:08;100535.25;;;12.40;51.88
75609;BME280;64194;51.044;13.780;2022-11-25T09:04:09;100531.09;;;12.36;51.51
75609;BME280;64194;51.044;13.780;2022-11-25T09:08:11;100535.22;;;13.33;49.77
75609;BME280;64194;51.044;13.780;2022-11-25T09:12:37;100522.81;;;15.15;44.60
75609;BME280;64194;51.044;13.780;2022-11-25T09:16:42;100525.25;;;16.51;42.04
75609;BME280;64194;51.044;13.780;2022-11-25T09:20:45;100529.06;;;16.81;40.46
75609;BME280;64194;51.044;13.780;2022-11-25T09:24:58;100523.75;;;15.93;42.04
75609;BME280;64194;51.044;13.780;2022-11-25T09:29:02;100532.38;;;13.98;46.09
75609;BME280;64194;51.044;13.780;2022-11-25T09:33:04;100534.16;;;13.09;48.94
75609;BME280;64194;51.044;13.780;2022-11-25T09:37:06;100529.88;;;14.57;45.96
75609;BME280;64194;51.044;13.780;2022-11-25T09:55:32;100530.72;;;19.33;35.74
75609;BME280;64194;51.044;13.780;2022-11-25T10:04:22;100531.47;;;20.81;33.21
75609;BME280;64194;51.044;13.780;2022-11-25T10:08:52;100529.84;;;21.41;31.81
75609;BME280;64194;51.044;13.780;2022-11-25T10:17:47;100513.06;;;22.31;30.39
75609;BME280;64194;51.044;13.780;2022-11-25T10:21:54;100519.38;;;22.40;29.98
75609;BME280;64194;51.044;13.780;2022-11-25T10:26:00;100531.22;;;21.97;30.29
75609;BME280;64194;51.044;13.780;2022-11-25T10:30:41;100525.38;;;22.18;29.70
75609;BME280;64194;51.044;13.780;2022-11-25T10:35:17;100517.78;;;22.21;29.63
75609;BME280;64194;51.044;13.780;2022-11-25T10:59:32;100500.69;;;23.60;28.15
75609;BME280;64194;51.044;13.780;2022-11-25T11:04:03;100488.63;;;24.17;27.36
75609;BME280;64194;51.044;13.780;2022-11-25T11:31:18;100479.38;;;23.16;29.63
75609;BME280;64194;51.044;13.780;2022-11-25T11:35:36;100468.66;;;24.02;27.96
75609;BME280;64194;51.044;13.780;2022-11-25T11:48:50;100475.16;;;23.93;28.04
75609;BME280;64194;51.044;13.780;2022-11-25T11:57:42;100466.66;;;23.96;28.25
75609;BME280;64194;51.044;13.780;2022-11-25T12:06:15;100469.44;;;22.18;31.25
75609;BME280;64194;51.044;13.780;2022-11-25T12:10:29;100463.81;;;20.02;34.36
75609;BME280;64194;51.044;13.780;2022-11-25T12:14:42;100466.56;;;18.42;38.18
75609;BME280;64194;51.044;13.780;2022-11-25T12:18:59;100469.50;;;18.38;38.99
75609;BME280;64194;51.044;13.780;2022-11-25T12:23:05;100456.25;;;17.78;39.99
75609;BME280;64194;51.044;13.780;2022-11-25T12:27:21;100468.44;;;16.68;42.73
75609;BME280;64194;51.044;13.780;2022-11-25T12:31:26;100459.09;;;15.31;45.80
75609;BME280;64194;51.044;13.780;2022-11-25T12:39:50;100447.34;;;16.21;44.18
75609;BME280;64194;51.044;13.780;2022-11-25T12:48:01;100454.41;;;17.27;42.31
75609;BME280;64194;51.044;13.780;2022-11-25T13:10:05;100457.63;;;17.51;42.03
75609;BME280;64194;51.044;13.780;2022-11-25T13:14:27;100454.38;;;19.14;38.65
75609;BME280;64194;51.044;13.780;2022-11-25T13:18:38;100470.81;;;19.02;38.64
75609;BME280;64194;51.044;13.780;2022-11-25T13:22:41;100470.09;;;18.42;39.50
75609;BME280;64194;51.044;13.780;2022-11-25T13:26:47;100483.06;;;18.18;40.02
75609;BME280;64194;51.044;13.780;2022-11-25T13:30:51;100478.91;;;19.95;36.72
75609;BME280;64194;51.044;13.780;2022-11-25T13:39:29;100487.09;;;17.93;39.45
75609;BME280;64194;51.044;13.780;2022-11-25T13:43:31;100488.38;;;16.32;43.02
75609;BME280;64194;51.044;13.780;2022-11-25T13:47:39;100487.97;;;14.92;46.88
75609;BME280;64194;51.044;13.780;2022-11-25T13:51:48;100500.84;;;13.67;50.47
75609;BME280;64194;51.044;13.780;2022-11-25T14:04:51;100494.09;;;11.91;56.01
75609;BME280;64194;51.044;13.780;2022-11-25T14:09:04;100495.84;;;11.49;57.27
75609;BME280;64194;51.044;13.780;2022-11-25T14:22:07;100516.22;;;10.31;61.05
75609;BME280;64194;51.044;13.780;2022-11-25T14:26:26;100525.31;;;9.78;62.12
75609;BME280;64194;51.044;13.780;2022-11-25T14:30:54;100529.78;;;9.45;63.01
75609;BME280;64194;51.044;13.780;2022-11-25T14:35:09;100533.16;;;9.31;63.20
75609;BME280;64194;51.044;13.780;2022-11-25T14:39:32;100535.91;;;9.12;63.96
75609;BME280;64194;51.044;13.780;2022-11-25T14:43:46;100550.44;;;9.05;64.01
75609;BME280;64194;51.044;13.780;2022-11-25T14:47:51;100553.53;;;8.96;64.51
75609;BME280;64194;51.044;13.780;2022-11-25T14:51:55;100557.03;;;8.97;64.59
75609;BME280;64194;51.044;13.780;2022-11-25T14:55:57;100559.22;;;8.89;64.71
75609;BME280;64194;51.044;13.780;2022-11-25T15:00:05;100572.13;;;8.60;65.42
75609;BME280;64194;51.044;13.780;2022-11-25T15:04:32;100572.06;;;8.43;65.85
75609;BME280;64194;51.044;13.780;2022-11-25T15:08:39;100567.38;;;8.29;66.99
75609;BME280;64194;51.044;13.780;2022-11-25T15:12:43;100569.56;;;8.21;67.01
75609;BME280;64194;51.044;13.780;2022-11-25T15:16:50;100576.34;;;8.08;67.18
75609;BME280;64194;51.044;13.780;2022-11-25T15:21:00;100574.63;;;7.88;67.93
75609;BME280;64194;51.044;13.780;2022-11-25T15:25:30;100572.97;;;7.86;67.92
75609;BME280;64194;51.044;13.780;2022-11-25T15:34:40;100590.47;;;7.70;68.81
75609;BME280;64194;51.044;13.780;2022-11-25T15:44:13;100604.84;;;7.44;69.77
75609;BME280;64194;51.044;13.780;2022-11-25T15:48:26;100607.28;;;7.48;69.44
75609;BME280;64194;51.044;13.780;2022-11-25T15:52:33;100605.50;;;7.49;69.21
75609;BME280;64194;51.044;13.780;2022-11-25T15:56:38;100608.78;;;7.54;68.82
75609;BME280;64194;51.044;13.780;2022-11-25T16:00:40;100609.53;;;7.37;70.17
75609;BME280;64194;51.044;13.780;2022-11-25T16:09:49;100609.94;;;7.28;70.24
75609;BME280;64194;51.044;13.780;2022-11-25T16:22:41;100620.69;;;7.24;70.55
75609;BME280;64194;51.044;13.780;2022-11-25T16:26:52;100629.22;;;7.30;71.24
75609;BME280;64194;51.044;13.780;2022-11-25T16:30:55;100639.28;;;7.21;70.95
75609;BME280;64194;51.044;13.780;2022-11-25T16:35:15;100649.16;;;7.17;71.51
75609;BME280;64194;51.044;13.780;2022-11-25T16:39:42;100649.00;;;7.20;71.51
75609;BME280;64194;51.044;13.780;2022-11-25T16:43:45;100646.66;;;7.14;71.70
75609;BME280;64194;51.044;13.780;2022-11-25T16:47:49;100646.09;;;7.06;72.67
75609;BME280;64194;51.044;13.780;2022-11-25T16:52:20;100658.00;;;7.16;72.60
75609;BME280;64194;51.044;13.780;2022-11-25T16:56:23;100652.44;;;7.22;72.00
75609;BME280;64194;51.044;13.780;2022-11-25T17:00:54;100646.09;;;7.06;72.78
75609;BME280;64194;51.044;13.780;2022-11-25T17:04:58;100647.44;;;6.94;72.92
75609;BME280;64194;51.044;13.780;2022-11-25T17:18:45;100644.19;;;6.88;73.79
75609;BME280;64194;51.044;13.780;2022-11-25T17:23:21;100652.63;;;6.76;74.41
75609;BME280;64194;51.044;13.780;2022-11-25T17:27:51;100649.91;;;6.77;74.41
75609;BME280;64194;51.044;13.780;2022-11-25T17:31:54;100659.75;;;6.73;74.56
75609;BME280;64194;51.044;13.780;2022-11-25T17:35:59;100668.56;;;6.72;74.71
75609;BME280;64194;51.044;13.780;2022-11-25T17:40:01;100679.72;;;6.81;74.23
75609;BME280;64194;51.044;13.780;2022-11-25T17:44:02;100681.91;;;6.69;75.22
75609;BME280;64194;51.044;13.780;2022-11-25T17:53:01;100674.00;;;6.69;75.40
75609;BME280;64194;51.044;13.780;2022-11-25T17:57:05;100677.69;;;6.87;74.94
75609;BME280;64194;51.044;13.780;2022-11-25T18:01:08;100678.66;;;6.85;74.96
75609;BME280;64194;51.044;13.780;2022-11-25T18:05:18;100686.31;;;6.91;75.17
75609;BME280;64194;51.044;13.780;2022-11-25T18:09:21;100685.84;;;7.03;74.36
75609;BME280;64194;51.044;13.780;2022-11-25T18:13:22;100686.88;;;6.99;74.18
75609;BME280;64194;51.044;13.780;2022-11-25T18:32:02;100716.22;;;6.91;74.73
75609;BME280;64194;51.044;13.780;2022-11-25T18:36:04;100713.50;;;6.93;74.96
75609;BME280;64194;51.044;13.780;2022-11-25T18:40:14;100715.75;;;7.03;74.43
75609;BME280;64194;51.044;13.780;2022-11-25T18:44:24;100719.22;;;7.04;74.29
75609;BME280;64194;51.044;13.780;2022-11-25T18:48:26;100726.38;;;7.02;74.74
75609;BME280;64194;51.044;13.780;2022-11-25T18:52:28;100736.25;;;6.97;74.40
75609;BME280;64194;51.044;13.780;2022-11-25T18:56:31;100736.25;;;6.97;75.16
75609;BME280;64194;51.044;13.780;2022-11-25T19:00:33;100749.50;;;6.95;75.41
75609;BME280;64194;51.044;13.780;2022-11-25T19:04:37;100754.06;;;6.92;75.35
75609;BME280;64194;51.044;13.780;2022-11-25T19:08:40;100754.53;;;6.80;76.05
75609;BME280;64194;51.044;13.780;2022-11-25T19:12:45;100752.81;;;6.79;76.83
75609;BME280;64194;51.044;13.780;2022-11-25T19:17:19;100758.03;;;6.80;77.09
75609;BME280;64194;51.044;13.780;2022-11-25T19:27:30;100774.06;;;6.76;78.06
75609;BME280;64194;51.044;13.780;2022-11-25T19:31:32;100773.47;;;6.67;78.77
75609;BME280;64194;51.044;13.780;2022-11-25T19:35:35;100779.66;;;6.66;79.29
75609;BME280;64194;51.044;13.780;2022-11-25T19:39:38;100783.13;;;6.68;78.94
75609;BME280;64194;51.044;13.780;2022-11-25T19:43:39;100791.09;;;6.67;79.06
75609;BME280;64194;51.044;13.780;2022-11-25T19:47:43;100794.13;;;6.80;79.21
75609;BME280;64194;51.044;13.780;2022-11-25T19:51:46;100799.97;;;6.88;78.53
75609;BME280;64194;51.044;13.780;2022-11-25T19:55:48;100801.63;;;6.90;77.92
75609;BME280;64194;51.044;13.780;2022-11-25T19:59:50;100809.06;;;6.81;78.99
75609;BME280;64194;51.044;13.780;2022-11-25T20:03:51;100815.19;;;6.81;78.50
75609;BME280;64194;51.044;13.780;2022-11-25T20:07:54;100814.34;;;6.81;78.39
75609;BME280;64194;51.044;13.780;2022-11-25T20:11:56;100817.66;;;6.86;79.04
75609;BME280;64194;51.044;13.780;2022-11-25T20:16:21;100819.63;;;6.81;79.52
75609;BME280;64194;51.044;13.780;2022-11-25T20:20:26;100826.72;;;6.79;80.02
75609;BME280;64194;51.044;13.780;2022-11-25T20:24:29;100830.03;;;6.84;79.80
75609;BME280;64194;51.044;13.780;2022-11-25T20:28:31;100844.09;;;6.84;79.42
75609;BME280;64194;51.044;13.780;2022-11-25T20:32:32;100846.06;;;6.79;79.88
75609;BME280;64194;51.044;13.780;2022-11-25T20:36:38;100851.75;;;6.92;79.54
75609;BME280;64194;51.044;13.780;2022-11-25T20:40:42;100858.22;;;6.83;78.97
75609;BME280;64194;51.044;13.780;2022-11-25T20:44:46;100853.94;;;6.81;79.57
75609;BME280;64194;51.044;13.780;2022-11-25T20:48:50;100867.13;;;6.81;79.27
75609;BME280;64194;51.044;13.780;2022-11-25T20:52:53;100858.03;;;6.88;78.93
75609;BME280;64194;51.044;13.780;2022-11-25T20:56:55;100865.00;;;6.90;79.10
75609;BME280;64194;51.044;13.780;2022-11-25T21:00:58;100868.47;;;6.92;79.22
75609;BME280;64194;51.044;13.780;2022-11-25T21:05:00;100868.47;;;6.92;79.57
75609;BME280;64194;51.044;13.780;2022-11-25T21:09:01;100879.50;;;7.03;79.44
75609;BME280;64194;51.044;13.780;2022-11-25T21:13:05;100880.09;;;7.10;79.01
75609;BME280;64194;51.044;13.780;2022-11-25T21:17:11;100892.78;;;7.24;79.04
75609;BME280;64194;51.044;13.780;2022-11-25T21:21:24;100890.66;;;7.33;79.32
75609;BME280;64194;51.044;13.780;2022-11-25T21:25:28;100893.47;;;7.29;79.60
75609;BME280;64194;51.044;13.780;2022-11-25T21:29:30;100906.69;;;7.29;79.32
75609;BME280;64194;51.044;13.780;2022-11-25T21:33:32;100902.66;;;7.19;80.60
75609;BME280;64194;51.044;13.780;2022-11-25T21:37:35;100911.69;;;7.13;80.90
75609;BME280;64194;51.044;13.780;2022-11-25T21:41:37;100913.66;;;7.08;81.40
75609;BME280;64194;51.044;13.780;2022-11-25T21:45:38;100923.34;;;7.07;81.84
75609;BME280;64194;51.044;13.780;2022-11-25T21:49:40;100919.56;;;7.14;82.30
75609;BME280;64194;51.044;13.780;2022-11-25T21:53:45;100922.59;;;7.27;82.38
75609;BME280;64194;51.044;13.780;2022-11-25T21:57:47;100932.47;;;7.22;81.88
75609;BME280;64194;51.044;13.780;2022-11-25T22:01:49;100935.16;;;7.21;82.76
75609;BME280;64194;51.044;13.780;2022-11-25T22:05:50;100943.72;;;7.27;82.80
75609;BME280;64194;51.044;13.780;2022-11-25T22:09:55;100945.50;;;7.27;82.62
75609;BME280;64194;51.044;13.780;2022-11-25T22:13:58;100940.03;;;7.31;82.87
75609;BME280;64194;51.044;13.780;2022-11-25T22:18:01;100949.88;;;7.28;83.45
75609;BME280;64194;51.044;13.780;2022-11-25T22:22:09;100953.25;;;7.31;83.43
75609;BME280;64194;51.044;13.780;2022-11-25T22:26:20;100947.19;;;7.29;82.68
75609;BME280;64194;51.044;13.780;2022-11-25T22:30:23;100959.94;;;7.41;82.75
75609;BME280;64194;51.044;13.780;2022-11-25T22:34:25;100961.97;;;7.56;82.33
75609;BME280;64194;51.044;13.780;2022-11-25T22:38:29;100965.50;;;7.57;81.87
75609;BME280;64194;51.044;13.780;2022-11-25T22:42:31;100965.81;;;7.48;82.41
75609;BME280;64194;51.044;13.780;2022-11-25T22:46:34;100974.09;;;7.39;83.07
75609;BME280;64194;51.044;13.780;2022-11-25T22:50:37;100980.59;;;7.53;82.83
75609;BME280;64194;51.044;13.780;2022-11-25T22:54:38;100983.69;;;7.65;81.24
75609;BME280;64194;51.044;13.780;2022-11-25T22:58:40;100981.41;;;7.55;82.96
75609;BME280;64194;51.044;13.780;2022-11-25T23:02:45;100990.38;;;7.51;83.17
75609;BME280;64194;51.044;13.780;2022-11-25T23:06:47;100985.63;;;7.60;83.58
75609;BME280;64194;51.044;13.780;2022-11-25T23:10:54;100988.00;;;7.67;83.24
75609;BME280;64194;51.044;13.780;2022-11-25T23:14:55;100995.53;;;7.78;83.20
75609;BME280;64194;51.044;13.780;2022-11-25T23:18:57;101000.56;;;7.84;82.44
75609;BME280;64194;51.044;13.780;2022-11-25T23:23:11;101001.94;;;7.94;82.45
75609;BME280;64194;51.044;13.780;2022-11-25T23:27:14;101006.50;;;7.90;82.57
75609;BME280;64194;51.044;13.780;2022-11-25T23:31:16;101004.75;;;7.89;82.87
75609;BME280;64194;51.044;13.780;2022-11-25T23:35:21;101000.94;;;7.96;82.64
75609;BME280;64194;51.044;13.780;2022-11-25T23:39:26;101007.66;;;8.05;82.45
75609;BME280;64194;51.044;13.780;2022-11-25T23:43:28;101002.22;;;8.08;82.33
75609;BME280;64194;51.044;13.780;2022-11-25T23:47:30;101011.03;;;8.09;82.01
75609;BME280;64194;51.044;13.780;2022-11-25T23:51:31;101015.41;;;8.10;81.80
75609;BME280;64194;51.044;13.780;2022-11-25T23:55:34;101019.72;;;8.12;82.27
75609;BME280;64194;51.044;13.780;2022-11-25T23:59:39;101019.16;;;8.04;83.50
